Time;durP1;ratioP1;P1;durP2;ratioP2;P2;SDS_P1;SDS_P2;PMS_P1;PMS_P2;Temp;Humidity;BMP_temperature;BMP_pressure;BME280_temperature;BME280_humidity;BME280_pressure;Samples;Min_cycle;Max_cycle;Signal;HPM_P1;HPM_P2
2021/09/11 00:01:04;;;;;;;19.40;17.60;;;18.60;99.90;;;;;;5082758;28;20445;-68
2021/09/11 00:03:33;;;;;;;19.63;17.83;;;18.60;99.90;;;;;;5089103;28;20489;-68
2021/09/11 00:06:01;;;;;;;20.87;18.70;;;18.50;99.90;;;;;;5089017;28;20454;-67
2021/09/11 00:08:28;;;;;;;21.10;19.00;;;18.50;99.90;;;;;;5088599;28;20486;-66
2021/09/11 00:10:55;;;;;;;20.17;18.20;;;18.50;99.90;;;;;;5089494;28;20541;-67
2021/09/11 00:13:22;;;;;;;19.70;18.00;;;18.60;99.90;;;;;;5076299;28;20948;-69
2021/09/11 00:15:50;;;;;;;20.70;18.90;;;18.60;99.90;;;;;;5090814;28;20473;-68
2021/09/11 00:18:17;;;;;;;21.53;19.30;;;18.60;99.90;;;;;;5090120;28;20499;-67
2021/09/11 00:20:44;;;;;;;19.00;17.20;;;18.60;99.90;;;;;;5087724;28;20442;-68
2021/09/11 00:23:13;;;;;;;19.47;17.87;;;18.50;99.90;;;;;;5091409;28;20465;-67
2021/09/11 00:25:41;;;;;;;18.60;16.80;;;18.60;99.90;;;;;;5090606;28;20676;-67
2021/09/11 00:28:08;;;;;;;17.87;16.20;;;18.50;99.90;;;;;;5091234;28;20799;-67
2021/09/11 00:30:35;;;;;;;18.80;16.80;;;18.60;99.90;;;;;;5090563;28;20445;-67
2021/09/11 00:33:03;;;;;;;19.50;17.70;;;18.60;99.90;;;;;;5090375;28;20484;-67
2021/09/11 00:35:30;;;;;;;20.40;18.67;;;18.50;99.90;;;;;;5090089;28;20494;-67
2021/09/11 00:37:57;;;;;;;20.00;17.90;;;18.50;99.90;;;;;;5090343;28;20485;-66
2021/09/11 00:40:25;;;;;;;20.07;18.07;;;18.50;99.90;;;;;;5090555;28;20965;-67
2021/09/11 00:42:52;;;;;;;19.13;17.30;;;18.50;99.90;;;;;;5090533;28;20446;-66
2021/09/11 00:45:21;;;;;;;18.83;17.03;;;18.70;99.90;;;;;;5090553;28;20466;-68
2021/09/11 00:47:49;;;;;;;19.63;17.47;;;18.70;99.90;;;;;;5090366;28;20499;-67
2021/09/11 00:50:17;;;;;;;19.33;17.53;;;18.60;99.90;;;;;;5090229;28;20450;-67
2021/09/11 00:52:46;;;;;;;21.60;17.03;;;18.70;99.90;;;;;;5090385;28;20489;-67
2021/09/11 00:55:14;;;;;;;20.93;18.90;;;18.60;99.90;;;;;;5089972;28;20561;-67
2021/09/11 00:57:45;;;;;;;21.27;18.63;;;18.60;99.90;;;;;;5090163;28;20477;-67
2021/09/11 01:00:13;;;;;;;20.50;18.50;;;18.60;99.90;;;;;;5090032;28;21129;-67
2021/09/11 01:02:40;;;;;;;22.50;20.20;;;18.60;99.90;;;;;;5089642;28;20440;-67
2021/09/11 01:05:09;;;;;;;21.37;19.37;;;18.50;99.90;;;;;;5090139;28;20478;-67
2021/09/11 01:07:38;;;;;;;19.60;17.87;;;18.50;99.90;;;;;;5090189;28;20827;-67
2021/09/11 01:10:06;;;;;;;19.70;17.77;;;18.50;99.90;;;;;;5090332;28;20443;-67
2021/09/11 01:12:33;;;;;;;21.30;19.23;;;18.60;99.90;;;;;;5089575;28;20444;-67
2021/09/11 01:15:03;;;;;;;18.80;17.10;;;18.50;99.90;;;;;;5089940;28;20544;-67
2021/09/11 01:17:30;;;;;;;18.50;16.80;;;18.60;99.90;;;;;;5089678;28;20488;-67
2021/09/11 01:19:57;;;;;;;19.40;17.43;;;18.50;99.90;;;;;;5090060;28;21030;-67
2021/09/11 01:22:24;;;;;;;18.60;16.80;;;18.50;99.90;;;;;;5089775;28;21034;-67
2021/09/11 01:24:57;;;;;;;18.10;16.50;;;18.50;99.90;;;;;;5090081;28;20466;-67
2021/09/11 01:27:25;;;;;;;18.80;17.00;;;18.40;99.90;;;;;;5089809;28;20446;-67
2021/09/11 01:29:53;;;;;;;18.97;17.37;;;18.40;99.90;;;;;;5090156;28;20456;-67
2021/09/11 01:32:20;;;;;;;17.13;15.53;;;18.30;99.90;;;;;;5089862;28;20446;-66
2021/09/11 01:34:48;;;;;;;17.03;15.43;;;18.30;99.90;;;;;;5089608;28;20470;-66
2021/09/11 01:37:15;;;;;;;17.00;15.40;;;18.20;99.90;;;;;;5089757;28;20484;-67
2021/09/11 01:39:42;;;;;;;17.40;15.60;;;18.20;99.90;;;;;;5089784;28;20450;-67
2021/09/11 01:42:10;;;;;;;15.17;13.87;;;18.20;99.90;;;;;;5089454;28;20450;-67
2021/09/11 01:44:37;;;;;;;15.23;13.87;;;18.20;99.90;;;;;;5089489;28;20553;-67
2021/09/11 01:47:04;;;;;;;15.73;14.17;;;18.10;99.90;;;;;;5089872;28;20442;-67
2021/09/11 01:49:31;;;;;;;15.27;13.67;;;18.10;99.90;;;;;;5089804;28;20444;-67
2021/09/11 01:51:57;;;;;;;13.97;12.57;;;18.10;99.90;;;;;;5089533;28;20454;-67
2021/09/11 01:54:24;;;;;;;14.20;12.90;;;18.10;99.90;;;;;;5089508;28;20477;-67
2021/09/11 01:56:51;;;;;;;14.53;13.23;;;18.10;99.90;;;;;;5089776;28;20553;-67
2021/09/11 01:59:19;;;;;;;13.93;12.40;;;18.10;99.90;;;;;;5089749;28;20457;-67
2021/09/11 02:01:46;;;;;;;13.27;12.07;;;18.20;99.90;;;;;;5089336;28;20442;-67
2021/09/11 02:04:13;;;;;;;12.10;11.10;;;18.20;99.90;;;;;;5089668;28;20489;-67
2021/09/11 02:06:40;;;;;;;14.40;13.10;;;18.20;99.90;;;;;;5089314;28;20480;-67
2021/09/11 02:09:06;;;;;;;14.20;12.77;;;18.20;99.90;;;;;;5092140;28;20489;-67
2021/09/11 02:11:33;;;;;;;12.30;11.20;;;18.20;99.90;;;;;;5092645;28;20936;-67
2021/09/11 02:14:00;;;;;;;12.80;11.60;;;18.10;99.90;;;;;;5093312;28;20464;-67
2021/09/11 02:16:28;;;;;;;12.23;11.13;;;18.10;99.90;;;;;;5092769;28;20897;-67
2021/09/11 02:18:55;;;;;;;12.50;11.30;;;18.10;99.90;;;;;;5093038;28;20944;-67
2021/09/11 02:21:22;;;;;;;11.97;10.87;;;18.00;99.90;;;;;;5092831;28;20453;-67
2021/09/11 02:23:49;;;;;;;13.17;11.97;;;18.00;99.90;;;;;;5092839;28;20562;-67
2021/09/11 02:26:16;;;;;;;13.13;11.93;;;18.10;99.90;;;;;;5093209;28;20443;-67
2021/09/11 02:28:43;;;;;;;13.07;11.90;;;18.10;99.90;;;;;;5093025;28;20455;-67
2021/09/11 02:31:11;;;;;;;14.57;13.17;;;18.10;99.90;;;;;;5093164;28;20454;-67
2021/09/11 02:33:39;;;;;;;15.80;14.20;;;18.10;99.90;;;;;;5092629;28;20469;-68
2021/09/11 02:36:07;;;;;;;14.90;13.60;;;18.10;99.90;;;;;;5092757;28;20826;-68
2021/09/11 02:38:34;;;;;;;14.00;12.60;;;18.10;99.90;;;;;;5092250;28;20472;-67
2021/09/11 02:41:01;;;;;;;16.07;13.00;;;18.10;99.90;;;;;;5092953;28;20452;-68
2021/09/11 02:43:28;;;;;;;14.77;12.87;;;18.10;99.90;;;;;;5092279;28;20526;-67
2021/09/11 02:45:56;;;;;;;15.60;14.17;;;18.10;99.90;;;;;;5092902;28;20548;-68
2021/09/11 02:48:22;;;;;;;16.40;14.73;;;18.10;99.90;;;;;;5092577;28;20482;-68
2021/09/11 02:50:51;;;;;;;17.50;14.93;;;18.20;99.90;;;;;;5092378;28;20450;-68
2021/09/11 02:53:18;;;;;;;15.17;13.70;;;18.20;99.90;;;;;;5092179;28;20453;-67
2021/09/11 02:55:46;;;;;;;20.53;14.70;;;18.30;99.90;;;;;;5092372;28;20839;-67
2021/09/11 02:58:12;;;;;;;14.67;13.27;;;18.20;99.90;;;;;;5092613;28;20485;-67
2021/09/11 03:00:39;;;;;;;14.90;13.40;;;18.30;99.90;;;;;;5092217;28;20947;-68
2021/09/11 03:03:06;;;;;;;15.07;13.77;;;18.30;99.90;;;;;;5091949;28;20538;-67
2021/09/11 03:05:33;;;;;;;13.70;12.50;;;18.30;99.90;;;;;;5091937;28;20473;-67
2021/09/11 03:08:01;;;;;;;13.30;11.90;;;18.30;99.90;;;;;;5092359;28;20438;-67
2021/09/11 03:10:28;;;;;;;13.57;12.30;;;18.40;99.90;;;;;;5092070;28;20454;-68
2021/09/11 03:12:56;;;;;;;14.10;12.80;;;18.40;99.90;;;;;;5091837;28;20449;-67
2021/09/11 03:15:22;;;;;;;13.40;12.10;;;18.50;99.90;;;;;;5091851;28;20577;-67
2021/09/11 03:17:49;;;;;;;13.73;12.43;;;18.50;99.90;;;;;;5092143;28;20473;-67
2021/09/11 03:20:16;;;;;;;12.07;10.97;;;18.50;99.90;;;;;;5091580;28;20452;-67
2021/09/11 03:22:44;;;;;;;13.70;12.40;;;18.50;99.90;;;;;;5092259;28;20473;-68
2021/09/11 03:25:13;;;;;;;13.70;11.53;;;18.50;99.90;;;;;;5092124;28;20474;-67
2021/09/11 03:27:40;;;;;;;12.30;11.10;;;18.50;99.90;;;;;;5091789;28;20438;-67
2021/09/11 03:30:08;;;;;;;12.17;10.97;;;18.50;99.90;;;;;;5092173;28;20450;-67
2021/09/11 03:32:34;;;;;;;11.67;10.57;;;18.60;99.90;;;;;;5091162;28;20442;-67
2021/09/11 03:35:02;;;;;;;10.43;9.50;;;18.60;99.90;;;;;;5091877;28;20470;-67
2021/09/11 03:37:29;;;;;;;11.40;10.40;;;18.60;99.90;;;;;;5091385;28;20517;-67
2021/09/11 03:39:56;;;;;;;11.80;10.70;;;18.60;99.90;;;;;;5091629;28;20450;-67
2021/09/11 03:42:24;;;;;;;10.50;9.50;;;18.60;99.90;;;;;;5090986;28;20456;-67
2021/09/11 03:44:51;;;;;;;11.97;10.77;;;18.60;99.90;;;;;;5091441;28;20470;-67
2021/09/11 03:47:18;;;;;;;10.60;9.70;;;18.60;99.90;;;;;;5091023;28;20438;-67
2021/09/11 03:49:45;;;;;;;10.80;9.80;;;18.50;99.90;;;;;;5091461;28;20547;-67
2021/09/11 03:52:11;;;;;;;11.27;10.13;;;18.50;99.90;;;;;;5091130;28;20446;-67
2021/09/11 03:54:38;;;;;;;15.93;10.63;;;18.50;99.90;;;;;;5090945;28;20465;-67
2021/09/11 03:57:06;;;;;;;12.13;10.70;;;18.60;99.90;;;;;;5091258;28;20478;-67
2021/09/11 03:59:34;;;;;;;12.80;9.97;;;18.60;99.90;;;;;;5090582;28;20450;-67
2021/09/11 04:02:01;;;;;;;11.07;10.17;;;18.60;99.90;;;;;;5090608;28;20450;-67
2021/09/11 04:04:29;;;;;;;11.47;10.37;;;18.60;99.90;;;;;;5090761;28;20992;-67
2021/09/11 04:06:56;;;;;;;15.13;10.87;;;18.60;99.90;;;;;;5091025;28;20828;-67
2021/09/11 04:09:23;;;;;;;13.30;12.10;;;18.60;99.90;;;;;;5090826;28;20468;-67
2021/09/11 04:11:50;;;;;;;14.47;13.07;;;18.50;99.90;;;;;;5090564;28;20452;-67
2021/09/11 04:14:17;;;;;;;14.33;12.80;;;18.50;99.90;;;;;;5090364;28;20468;-67
2021/09/11 04:16:45;;;;;;;14.90;13.47;;;18.40;99.90;;;;;;5090473;28;20492;-67
2021/09/11 04:19:12;;;;;;;14.53;13.03;;;18.30;99.90;;;;;;5090901;28;20723;-67
2021/09/11 04:21:38;;;;;;;13.47;12.20;;;18.30;99.90;;;;;;5089899;28;20444;-67
2021/09/11 04:24:06;;;;;;;14.43;13.20;;;18.20;99.90;;;;;;5090302;28;20541;-67
2021/09/11 04:26:34;;;;;;;14.23;12.93;;;18.20;99.90;;;;;;5090144;28;20434;-67
2021/09/11 04:29:01;;;;;;;15.57;14.20;;;18.20;99.90;;;;;;5090318;28;20805;-67
2021/09/11 04:31:28;;;;;;;16.67;15.07;;;18.20;99.90;;;;;;5089535;28;20441;-67
2021/09/11 04:33:56;;;;;;;17.27;15.57;;;18.20;99.90;;;;;;5090297;28;20438;-66
2021/09/11 04:36:23;;;;;;;19.30;17.23;;;18.20;99.90;;;;;;5090610;28;20438;-67
2021/09/11 04:38:50;;;;;;;18.20;16.50;;;18.10;99.90;;;;;;5090600;28;20484;-66
2021/09/11 04:41:17;;;;;;;19.97;18.07;;;18.10;99.90;;;;;;5090098;28;20434;-67
2021/09/11 04:43:43;;;;;;;23.23;20.83;;;17.90;99.90;;;;;;5090293;28;20920;-66
2021/09/11 04:46:10;;;;;;;20.87;18.87;;;17.80;99.90;;;;;;5090578;28;20440;-66
2021/09/11 04:48:37;;;;;;;21.03;19.03;;;17.70;99.90;;;;;;5090565;28;20442;-66
2021/09/11 04:51:05;;;;;;;21.10;18.97;;;17.60;99.90;;;;;;5090195;28;20442;-67
2021/09/11 04:53:32;;;;;;;23.07;19.50;;;17.50;99.90;;;;;;5089610;28;21106;-67
2021/09/11 04:55:59;;;;;;;22.33;20.03;;;17.50;99.90;;;;;;5090041;28;20465;-67
2021/09/11 04:58:26;;;;;;;21.87;19.77;;;17.50;99.90;;;;;;5090365;28;20485;-66
2021/09/11 05:00:52;;;;;;;21.70;19.60;;;17.50;99.90;;;;;;5090725;28;20454;-67
2021/09/11 05:03:19;;;;;;;20.97;18.97;;;17.50;99.90;;;;;;5089645;28;20434;-67
2021/09/11 05:05:46;;;;;;;23.87;21.57;;;17.50;99.90;;;;;;5090130;28;20466;-66
2021/09/11 05:08:17;;;;;;;20.47;18.37;;;17.50;99.90;;;;;;5090121;28;20533;-66
2021/09/11 05:10:45;;;;;;;20.80;18.90;;;17.50;99.90;;;;;;5090521;28;20434;-67
2021/09/11 05:13:12;;;;;;;24.60;22.03;;;17.60;99.90;;;;;;5089846;28;20445;-67
2021/09/11 05:15:39;;;;;;;22.47;20.37;;;17.60;99.90;;;;;;5090357;28;20993;-67
2021/09/11 05:18:05;;;;;;;24.63;22.20;;;17.60;99.90;;;;;;5090333;28;20496;-67
2021/09/11 05:20:32;;;;;;;25.20;22.80;;;17.60;99.90;;;;;;5090227;28;20438;-67
2021/09/11 05:22:59;;;;;;;24.90;21.57;;;17.50;99.90;;;;;;5089944;28;20511;-67
2021/09/11 05:25:28;;;;;;;24.90;22.33;;;17.60;99.90;;;;;;5090397;28;20457;-67
2021/09/11 05:27:55;;;;;;;24.17;21.87;;;17.60;99.90;;;;;;5090735;28;20517;-66
2021/09/11 05:30:22;;;;;;;24.57;22.13;;;17.70;99.90;;;;;;5090408;28;20813;-66
2021/09/11 05:32:49;;;;;;;23.03;20.73;;;17.70;99.90;;;;;;5089784;28;20529;-67
2021/09/11 05:35:16;;;;;;;23.93;21.63;;;17.80;99.90;;;;;;5089854;28;20454;-67
2021/09/11 05:37:43;;;;;;;23.50;21.20;;;17.80;99.90;;;;;;5089856;28;20505;-67
2021/09/11 05:40:10;;;;;;;23.10;20.87;;;17.80;99.90;;;;;;5089816;28;20920;-66
2021/09/11 05:42:38;;;;;;;24.63;22.30;;;17.80;99.90;;;;;;5089853;28;20453;-66
2021/09/11 05:45:07;;;;;;;24.17;21.67;;;17.80;99.90;;;;;;5091854;28;20454;-66
2021/09/11 05:47:34;;;;;;;24.90;22.37;;;17.80;99.90;;;;;;5086158;28;20512;-66
2021/09/11 05:50:01;;;;;;;23.50;21.20;;;17.90;99.90;;;;;;5088948;28;20442;-66
2021/09/11 05:52:28;;;;;;;22.83;20.53;;;17.90;99.90;;;;;;5089706;28;20517;-67
2021/09/11 05:54:56;;;;;;;22.87;20.60;;;17.90;99.90;;;;;;5093396;28;20544;-67
2021/09/11 05:57:22;;;;;;;22.57;20.40;;;17.90;99.90;;;;;;5092739;28;20983;-66
2021/09/11 05:59:51;;;;;;;21.07;19.07;;;17.90;99.90;;;;;;5095177;28;20442;-70
2021/09/11 06:02:18;;;;;;;21.40;19.30;;;17.80;99.90;;;;;;5093202;28;20442;-66
2021/09/11 06:04:45;;;;;;;21.80;19.80;;;17.80;99.90;;;;;;5093053;28;21194;-67
2021/09/11 06:07:12;;;;;;;22.30;20.17;;;17.80;99.90;;;;;;5094252;28;20434;-67
2021/09/11 06:09:38;;;;;;;21.43;19.40;;;17.90;99.90;;;;;;5093083;28;21011;-68
2021/09/11 06:12:10;;;;;;;21.03;18.97;;;18.00;99.90;;;;;;5090307;28;20434;-68
2021/09/11 06:14:36;;;;;;;18.20;16.43;;;18.00;99.90;;;;;;5080873;28;20459;-66
2021/09/11 06:17:06;;;;;;;17.27;15.63;;;18.10;99.90;;;;;;5081187;28;20434;-67
2021/09/11 06:19:34;;;;;;;16.13;14.63;;;18.20;99.90;;;;;;5081716;28;20505;-66
2021/09/11 06:22:01;;;;;;;12.00;10.90;;;18.20;99.90;;;;;;5080381;28;20462;-68
2021/09/11 06:24:29;;;;;;;12.80;11.50;;;18.20;99.90;;;;;;5084466;28;20541;-67
2021/09/11 06:26:56;;;;;;;13.27;11.30;;;18.30;99.90;;;;;;5092411;28;20457;-68
2021/09/11 06:29:23;;;;;;;11.60;10.50;;;18.40;99.90;;;;;;5085281;28;20446;-68
2021/09/11 06:31:50;;;;;;;11.63;10.47;;;18.40;99.90;;;;;;5089798;28;20445;-68
2021/09/11 06:34:18;;;;;;;10.40;9.40;;;18.50;99.90;;;;;;5082711;28;20831;-68
2021/09/11 06:36:45;;;;;;;11.00;10.00;;;18.50;99.90;;;;;;5084894;28;20455;-68
2021/09/11 06:39:11;;;;;;;11.93;10.63;;;18.50;99.90;;;;;;5085672;28;20953;-68
2021/09/11 06:41:38;;;;;;;12.40;10.03;;;18.60;99.90;;;;;;5087915;28;20534;-67
2021/09/11 06:44:05;;;;;;;8.73;7.93;;;18.70;99.90;;;;;;5081943;28;20473;-67
2021/09/11 06:46:32;;;;;;;8.77;7.37;;;18.80;99.90;;;;;;5088020;28;20470;-67
2021/09/11 06:48:59;;;;;;;9.23;8.33;;;18.90;99.90;;;;;;5081514;28;20525;-66
2021/09/11 06:51:28;;;;;;;10.00;7.83;;;19.00;99.90;;;;;;5079803;28;20446;-64
2021/09/11 06:53:55;;;;;;;9.20;8.30;;;19.10;99.90;;;;;;5084250;28;20446;-64
2021/09/11 06:56:22;;;;;;;10.50;7.77;;;19.20;99.90;;;;;;5089883;28;20438;-65
2021/09/11 06:58:48;;;;;;;7.10;6.40;;;19.30;99.90;;;;;;5094178;28;20956;-65
2021/09/11 07:01:15;;;;;;;7.20;6.47;;;19.50;99.90;;;;;;5097555;28;20529;-65
2021/09/11 07:03:42;;;;;;;6.97;6.30;;;19.60;99.90;;;;;;5096810;28;20822;-65
2021/09/11 07:06:09;;;;;;;8.23;5.90;;;19.80;99.90;;;;;;5097446;28;20462;-65
2021/09/11 07:08:37;;;;;;;7.17;6.23;;;19.90;99.90;;;;;;5096005;28;20457;-66
2021/09/11 07:11:04;;;;;;;7.13;6.43;;;20.10;99.90;;;;;;5085514;28;20454;-65
2021/09/11 07:13:31;;;;;;;7.67;6.97;;;20.30;99.90;;;;;;5081132;28;20455;-65
2021/09/11 07:15:58;;;;;;;6.37;5.70;;;20.50;99.90;;;;;;5084260;28;20467;-65
2021/09/11 07:18:25;;;;;;;7.33;6.00;;;20.60;99.90;;;;;;5090673;28;20486;-65
2021/09/11 07:20:52;;;;;;;7.03;6.33;;;20.80;99.90;;;;;;5081448;28;20457;-65
2021/09/11 07:23:19;;;;;;;7.77;6.10;;;21.00;99.90;;;;;;5085953;28;20448;-65
2021/09/11 07:25:47;;;;;;;7.40;6.43;;;21.10;99.90;;;;;;5084179;28;20549;-65
2021/09/11 07:28:14;;;;;;;7.60;6.23;;;21.20;99.90;;;;;;5091414;28;20530;-65
2021/09/11 07:30:41;;;;;;;10.07;6.77;;;21.30;99.90;;;;;;5087103;28;20478;-65
2021/09/11 07:33:08;;;;;;;6.93;5.73;;;21.50;99.90;;;;;;5075840;28;20470;-66
2021/09/11 07:35:35;;;;;;;7.30;6.50;;;21.60;99.90;;;;;;5079978;28;20552;-66
2021/09/11 07:38:02;;;;;;;8.80;6.47;;;21.70;99.90;;;;;;5077183;28;20479;-66
2021/09/11 07:40:29;;;;;;;6.60;5.93;;;21.70;99.90;;;;;;5085605;28;20473;-66
2021/09/11 07:42:57;;;;;;;6.93;6.23;;;21.60;99.90;;;;;;5086166;28;20446;-65
2021/09/11 07:45:24;;;;;;;6.97;6.33;;;21.70;99.90;;;;;;5087872;28;20575;-66
2021/09/11 07:47:51;;;;;;;6.57;5.90;;;21.70;99.90;;;;;;5091346;28;21010;-65
2021/09/11 07:50:19;;;;;;;6.13;5.53;;;21.80;99.90;;;;;;5091076;28;20541;-65
2021/09/11 07:52:45;;;;;;;6.10;5.50;;;21.80;99.90;;;;;;5088526;28;20446;-66
2021/09/11 07:55:12;;;;;;;6.13;5.37;;;21.90;99.90;;;;;;5083926;28;20462;-66
2021/09/11 07:57:39;;;;;;;5.70;5.20;;;21.80;99.90;;;;;;5090934;28;20526;-68
2021/09/11 08:00:08;;;;;;;7.90;5.27;;;21.70;99.90;;;;;;5087576;28;20522;-67
2021/09/11 08:02:35;;;;;;;6.70;6.10;;;21.80;99.90;;;;;;5087941;28;20451;-68
2021/09/11 08:05:02;;;;;;;6.03;5.10;;;22.00;99.90;;;;;;5090837;28;20216;-65
2021/09/11 08:07:29;;;;;;;8.63;6.20;;;22.30;99.90;;;;;;5089737;28;20478;-67
2021/09/11 08:09:55;;;;;;;5.50;4.73;;;22.40;99.90;;;;;;5090110;28;20525;-67
2021/09/11 08:12:22;;;;;;;5.23;4.50;;;22.50;99.90;;;;;;5089235;28;20444;-67
2021/09/11 08:14:49;;;;;;;5.53;5.00;;;22.60;99.90;;;;;;5089631;28;20466;-67
2021/09/11 08:17:18;;;;;;;5.90;5.30;;;22.50;99.90;;;;;;5089463;28;20899;-67
2021/09/11 08:19:44;;;;;;;5.83;5.23;;;22.60;99.90;;;;;;5089520;28;20477;-67
2021/09/11 08:22:11;;;;;;;7.63;5.57;;;22.50;99.90;;;;;;5089365;28;21008;-67
2021/09/11 08:24:38;;;;;;;5.80;5.20;;;22.50;99.90;;;;;;5087720;28;20469;-67
2021/09/11 08:27:05;;;;;;;5.13;4.17;;;22.60;99.90;;;;;;5089258;28;20457;-67
2021/09/11 08:29:32;;;;;;;5.00;4.50;;;22.80;99.90;;;;;;5088840;28;20442;-67
2021/09/11 08:31:59;;;;;;;5.50;5.00;;;22.90;99.90;;;;;;5089126;28;20931;-67
2021/09/11 08:34:27;;;;;;;5.80;5.07;;;22.90;99.90;;;;;;5086416;28;20454;-67
2021/09/11 08:36:54;;;;;;;5.90;4.80;;;22.80;99.90;;;;;;5089561;28;20441;-67
2021/09/11 08:39:24;;;;;;;4.93;4.43;;;22.90;99.90;;;;;;5089569;28;20478;-67
2021/09/11 08:41:51;;;;;;;5.63;5.13;;;23.20;99.90;;;;;;5088868;28;20434;-67
2021/09/11 08:44:18;;;;;;;5.50;4.03;;;23.60;99.90;;;;;;5089300;28;20454;-68
2021/09/11 08:46:48;;;;;;;5.20;4.70;;;24.20;99.90;;;;;;5089423;28;20469;-68
2021/09/11 08:49:15;;;;;;;4.80;4.37;;;24.50;99.90;;;;;;5089522;28;20466;-67
2021/09/11 08:51:44;;;;;;;4.90;3.93;;;24.80;99.90;;;;;;5088598;28;20939;-68
2021/09/11 08:54:14;;;;;;;4.83;4.13;;;24.90;99.90;;;;;;5089138;28;20544;-67
2021/09/11 08:56:43;;;;;;;5.00;4.60;;;24.90;99.90;;;;;;5088898;28;21115;-67
2021/09/11 08:59:12;;;;;;;5.10;4.00;;;25.00;99.90;;;;;;5085577;28;20505;-68
2021/09/11 09:01:39;;;;;;;4.97;4.47;;;24.90;99.90;;;;;;5088333;28;20435;-68
2021/09/11 09:04:07;;;;;;;4.90;4.40;;;24.80;99.90;;;;;;5088901;28;20468;-68
2021/09/11 09:06:35;;;;;;;6.57;4.43;;;24.60;99.90;;;;;;5088841;28;20989;-67
2021/09/11 09:09:10;;;;;;;4.80;4.17;;;24.40;99.90;;;;;;5088615;28;20521;-67
2021/09/11 09:11:38;;;;;;;4.97;4.47;;;24.20;99.90;;;;;;5088874;28;20855;-68
2021/09/11 09:14:07;;;;;;;5.13;4.10;;;23.90;99.90;;;;;;5088352;28;20512;-68
2021/09/11 09:16:36;;;;;;;5.90;4.93;;;23.70;99.90;;;;;;5088923;28;20441;-67
2021/09/11 09:19:06;;;;;;;5.30;4.80;;;23.60;99.90;;;;;;5091546;28;20480;-67
2021/09/11 09:21:34;;;;;;;5.30;4.27;;;23.60;99.90;;;;;;5092590;28;20450;-67
2021/09/11 09:24:02;;;;;;;4.20;3.37;;;23.70;99.90;;;;;;5092782;28;20461;-67
2021/09/11 09:26:31;;;;;;;5.00;4.53;;;24.10;99.90;;;;;;5092373;28;20465;-67
2021/09/11 09:29:11;;;;;;;7.83;5.33;;;24.40;99.90;;;;;;5093096;28;20430;-67
2021/09/11 09:31:39;;;;;;;5.63;5.07;;;24.60;99.90;;;;;;5089292;28;20549;-68
2021/09/11 09:34:06;;;;;;;5.13;4.53;;;24.30;99.90;;;;;;5090310;28;20529;-67
2021/09/11 09:36:39;;;;;;;5.53;4.17;;;24.40;99.90;;;;;;5092266;28;20458;-68
2021/09/11 09:39:08;;;;;;;4.43;4.03;;;25.10;99.90;;;;;;5088073;28;20480;-68
2021/09/11 09:41:48;;;;;;;4.53;3.63;;;25.90;99.90;;;;;;5093671;28;20521;-67
2021/09/11 09:44:17;;;;;;;4.17;3.50;;;26.30;99.90;;;;;;5093764;28;21046;-68
2021/09/11 09:46:46;;;;;;;6.97;3.80;;;26.50;99.90;;;;;;5090586;28;20923;-68
2021/09/11 09:49:18;;;;;;;3.37;2.93;;;26.80;99.90;;;;;;5089068;28;20944;-69
2021/09/11 09:51:46;;;;;;;5.20;3.60;;;26.90;99.90;;;;;;5083062;28;20438;-69
2021/09/11 09:54:14;;;;;;;4.00;3.50;;;26.40;99.90;;;;;;5093505;28;20496;-67
2021/09/11 09:56:42;;;;;;;4.83;3.97;;;26.00;99.90;;;;;;5088865;28;20438;-69
2021/09/11 09:59:10;;;;;;;5.13;4.63;;;25.80;99.90;;;;;;5092515;28;20478;-68
2021/09/11 10:01:38;;;;;;;3.90;3.37;;;25.70;99.90;;;;;;5092665;28;20529;-68
2021/09/11 10:04:19;;;;;;;7.43;4.07;;;25.80;99.90;;;;;;5092424;28;20502;-68
2021/09/11 10:06:49;;;;;;;4.57;3.90;;;26.40;99.90;;;;;;5092182;28;20440;-67
2021/09/11 10:09:21;;;;;;;4.50;4.10;;;27.10;99.90;;;;;;5092257;28;20430;-68
2021/09/11 10:11:51;;;;;;;4.50;3.10;;;27.30;99.90;;;;;;5084946;28;20440;-68
2021/09/11 10:14:21;;;;;;;5.83;3.70;;;27.30;99.90;;;;;;5093236;28;20485;-68
2021/09/11 10:16:59;;;;;;;4.80;3.60;;;27.20;99.90;;;;;;5093315;28;21180;-68
2021/09/11 10:19:28;;;;;;;4.60;4.07;;;27.00;99.90;;;;;;5093159;28;20569;-68
2021/09/11 10:22:08;;;;;;;4.80;3.83;;;27.10;99.90;;;;;;5090094;28;20771;-68
2021/09/11 10:24:37;;;;;;;3.57;3.20;;;26.80;99.90;;;;;;5085999;28;20477;-68
2021/09/11 10:27:11;;;;;;;3.53;3.23;;;26.50;99.90;;;;;;5091806;28;20975;-67
2021/09/11 10:29:51;;;;;;;3.80;3.40;;;26.60;99.90;;;;;;5092721;28;20430;-69
2021/09/11 10:32:20;;;;;;;4.20;3.60;;;26.80;99.90;;;;;;5092625;28;20529;-70
2021/09/11 10:34:53;;;;;;;4.20;3.57;;;27.10;99.90;;;;;;5092863;28;21193;-68
2021/09/11 10:37:32;;;;;;;4.83;3.70;;;27.30;99.90;;;;;;5092725;28;20450;-68
2021/09/11 10:40:29;;;;;;;4.57;3.80;;;27.50;99.90;;;;;;5093078;28;20469;-68
2021/09/11 10:43:16;;;;;;;5.83;3.33;;;27.00;99.90;;;;;;5088045;28;20442;-68
2021/09/11 10:45:46;;;;;;;4.43;3.93;;;26.20;99.90;;;;;;5085447;28;20500;-67
2021/09/11 10:48:48;;;;;;;4.87;3.60;;;26.70;99.90;;;;;;5092407;28;20509;-67
2021/09/11 10:51:28;;;;;;;4.07;3.43;;;26.20;99.90;;;;;;5054798;28;20485;-67
2021/09/11 10:54:02;;;;;;;4.80;3.50;;;26.10;99.90;;;;;;5087946;28;20492;-67
2021/09/11 10:56:31;;;;;;;4.63;4.10;;;25.90;99.90;;;;;;5091667;28;20862;-69
2021/09/11 10:59:33;;;;;;;6.93;4.07;;;25.20;99.90;;;;;;5092031;28;20478;-68
2021/09/11 11:02:13;;;;;;;3.90;3.50;;;25.20;99.90;;;;;;5092099;28;20452;-69
2021/09/11 11:04:56;;;;;;;6.73;3.73;;;25.30;99.90;;;;;;5091845;28;20513;-68
2021/09/11 11:07:25;;;;;;;5.00;4.50;;;25.00;99.90;;;;;;5080344;28;20543;-68
2021/09/11 11:09:53;;;;;;;5.27;4.77;;;24.60;99.90;;;;;;5083440;28;20560;-70
2021/09/11 11:12:22;;;;;;;4.83;4.33;;;24.10;99.90;;;;;;5073687;28;20447;-69
2021/09/11 11:14:49;;;;;;;6.40;5.00;;;23.30;99.90;;;;;;5069636;28;20564;-69
2021/09/11 11:17:19;;;;;;;5.63;4.87;;;22.90;99.90;;;;;;5070251;28;20443;-69
2021/09/11 11:19:48;;;;;;;5.50;4.70;;;22.70;99.90;;;;;;5082584;28;21011;-69
2021/09/11 11:22:18;;;;;;;6.13;4.70;;;22.70;99.90;;;;;;5078584;28;20438;-69
2021/09/11 11:24:47;;;;;;;5.23;4.73;;;22.90;99.90;;;;;;5077630;28;20481;-70
2021/09/11 11:27:17;;;;;;;7.93;4.23;;;23.10;99.90;;;;;;5082578;28;20463;-69
2021/09/11 11:29:44;;;;;;;7.17;4.27;;;23.50;99.90;;;;;;5079373;28;20443;-69
2021/09/11 11:32:11;;;;;;;4.67;4.13;;;23.70;99.90;;;;;;5069701;28;20542;-69
2021/09/11 11:34:40;;;;;;;5.77;4.50;;;23.70;99.90;;;;;;5081249;28;20830;-68
2021/09/11 11:37:09;;;;;;;4.83;4.43;;;23.70;99.90;;;;;;5076463;28;20465;-68
2021/09/11 11:39:38;;;;;;;5.80;4.70;;;23.50;99.90;;;;;;5072386;28;20479;-69
2021/09/11 11:42:07;;;;;;;5.00;4.23;;;23.40;99.90;;;;;;5076049;28;20484;-70
2021/09/11 11:44:38;;;;;;;7.33;5.10;;;23.50;99.90;;;;;;5082615;28;20561;-69
2021/09/11 11:47:16;;;;;;;8.33;4.57;;;23.50;99.90;;;;;;5081408;28;20450;-69
2021/09/11 11:49:44;;;;;;;4.90;4.40;;;23.50;99.90;;;;;;5082148;28;20446;-68
2021/09/11 11:52:14;;;;;;;6.27;4.23;;;23.30;99.90;;;;;;5084292;28;20888;-68
2021/09/11 11:54:44;;;;;;;7.60;4.70;;;23.00;99.90;;;;;;5084593;28;20558;-68
2021/09/11 11:57:13;;;;;;;6.97;3.93;;;22.90;99.90;;;;;;5084702;28;20860;-69
2021/09/11 11:59:41;;;;;;;4.70;3.90;;;22.80;99.90;;;;;;5079771;28;20541;-68
2021/09/11 12:02:18;;;;;;;4.60;3.90;;;22.90;99.90;;;;;;5079663;28;20474;-68
2021/09/11 12:04:48;;;;;;;5.43;4.30;;;23.00;99.90;;;;;;5078760;28;21008;-68
2021/09/11 12:07:32;;;;;;;4.63;3.90;;;23.20;99.90;;;;;;5090448;28;20438;-69
2021/09/11 12:10:03;;;;;;;4.20;3.37;;;23.40;99.90;;;;;;5087781;28;20912;-68
2021/09/11 12:12:47;;;;;;;4.97;3.60;;;23.60;99.90;;;;;;5090472;28;20435;-69
2021/09/11 12:15:16;;;;;;;4.77;3.47;;;23.20;99.90;;;;;;5088779;28;20569;-68
2021/09/11 12:18:00;;;;;;;4.23;2.83;;;22.90;99.90;;;;;;5090124;28;20493;-68
2021/09/11 12:20:30;;;;;;;3.50;2.87;;;22.60;99.90;;;;;;5090549;28;21018;-68
2021/09/11 12:23:13;;;;;;;4.57;3.50;;;22.50;99.90;;;;;;5090548;28;20438;-67
2021/09/11 12:25:54;;;;;;;5.90;3.93;;;22.50;99.90;;;;;;5088310;28;21773;-67
2021/09/11 12:28:42;;;;;;;5.70;4.27;;;22.40;99.90;;;;;;5088233;28;20541;-68
2021/09/11 12:31:20;;;;;;;5.70;3.70;;;22.00;99.90;;;;;;5091098;28;20431;-68
2021/09/11 12:33:50;;;;;;;7.30;4.10;;;21.50;99.90;;;;;;5085759;28;21032;-67
2021/09/11 12:36:24;;;;;;;8.00;5.00;;;21.40;99.90;;;;;;5090470;28;20464;-67
2021/09/11 12:38:53;;;;;;;6.63;5.00;;;22.30;99.90;;;;;;5086762;28;21008;-68
2021/09/11 12:41:21;;;;;;;6.23;4.37;;;23.80;99.90;;;;;;5090326;28;20535;-68
2021/09/11 12:43:48;;;;;;;4.07;3.40;;;24.80;99.90;;;;;;5090316;28;20918;-67